Time;durP1;ratioP1;P1;durP2;ratioP2;P2;SDS_P1;SDS_P2;PMS_P1;PMS_P2;Temp;Humidity;BMP_temperature;BMP_pressure;BME280_temperature;BME280_humidity;BME280_pressure;Samples;Min_cycle;Max_cycle;Signal;HPM_P1;HPM_P2
2022/04/21 00:00:31;;;;;;;40.30;29.98;;;;;;;8.31;79.81;100052.48;3503852;79;20955;-83
2022/04/21 00:05:23;;;;;;;40.67;30.48;;;;;;;8.29;79.88;100055.48;3482421;79;22527;-83
2022/04/21 00:10:15;;;;;;;36.90;29.37;;;;;;;8.32;80.10;100051.66;3484187;79;21011;-83
2022/04/21 00:15:08;;;;;;;40.23;29.42;;;;;;;8.39;80.19;100049.60;3525362;79;21406;-83
2022/04/21 00:20:00;;;;;;;44.13;31.90;;;;;;;8.43;80.06;100049.69;3495267;79;21378;-83
2022/04/21 00:24:51;;;;;;;39.55;29.42;;;;;;;8.38;80.14;100045.26;3530234;77;21466;-83
2022/04/21 00:29:44;;;;;;;39.63;30.15;;;;;;;8.37;80.21;100043.53;3528776;79;21066;-83
2022/04/21 00:34:35;;;;;;;41.37;29.90;;;;;;;8.41;80.16;100041.86;3527925;79;20956;-83
2022/04/21 00:39:27;;;;;;;39.67;28.92;;;;;;;8.39;80.25;100036.66;3511480;80;20978;-83
2022/04/21 00:44:18;;;;;;;38.65;27.67;;;;;;;8.42;80.25;100040.13;3478783;79;21010;-83
2022/04/21 00:49:10;;;;;;;36.73;26.68;;;;;;;8.36;80.21;100041.78;3488632;79;20916;-83
2022/04/21 00:54:01;;;;;;;36.90;25.52;;;;;;;8.35;80.50;100036.57;3500130;79;21044;-83
2022/04/21 00:58:53;;;;;;;37.20;26.75;;;;;;;8.35;80.56;100034.88;3490022;79;20982;-83
2022/04/21 01:03:44;;;;;;;36.17;26.35;;;;;;;8.38;80.57;100031.02;3512912;77;21050;-83
2022/04/21 01:08:37;;;;;;;29.77;23.62;;;;;;;8.45;80.81;100038.48;3488318;79;20944;-83
2022/04/21 01:13:29;;;;;;;34.38;22.22;;;;;;;8.47;80.74;100038.09;3507095;79;21003;-83
2022/04/21 01:18:31;;;;;;;29.52;22.07;;;;;;;8.46;80.86;100051.91;3546578;78;21370;-83
2022/04/21 01:23:20;;;;;;;29.32;20.97;;;;;;;8.46;80.91;100040.25;3492046;79;22103;-83
2022/04/21 01:28:12;;;;;;;27.58;20.65;;;;;;;8.49;80.95;100036.38;3531972;79;20990;-83
2022/04/21 01:33:03;;;;;;;27.85;19.45;;;;;;;8.49;80.95;100028.61;3526908;79;20944;-83
2022/04/21 01:43:04;;;;;;;28.83;20.77;;;;;;;8.52;81.06;100020.03;3534479;79;21015;-83
2022/04/21 01:47:56;;;;;;;25.75;17.80;;;;;;;8.50;81.22;100015.25;3485101;79;20948;-83
2022/04/21 01:52:47;;;;;;;25.50;19.00;;;;;;;8.49;81.23;100010.91;3488883;79;20948;-83
2022/04/21 01:57:39;;;;;;;28.45;20.23;;;;;;;8.51;81.31;100004.92;3474109;79;21765;-83
2022/04/21 02:02:31;;;;;;;26.55;18.45;;;;;;;8.57;81.34;99998.94;3512165;79;20955;-83
2022/04/21 02:07:22;;;;;;;27.30;19.32;;;;;;;8.60;81.39;99991.19;3508153;79;21863;-83
2022/04/21 02:12:14;;;;;;;25.88;19.87;;;;;;;8.57;81.32;99992.03;3515001;79;20948;-84
2022/04/21 02:17:06;;;;;;;21.15;16.52;;;;;;;8.60;81.46;99988.59;3478306;79;20935;-85
2022/04/21 02:21:57;;;;;;;20.75;16.23;;;;;;;8.61;81.42;99984.31;3511880;79;21536;-85
2022/04/21 02:26:48;;;;;;;18.30;14.95;;;;;;;8.58;81.28;99977.34;3508880;79;21438;-85
2022/04/21 02:31:39;;;;;;;17.10;13.68;;;;;;;8.65;81.39;99979.16;3484437;79;21864;-85
2022/04/21 02:36:30;;;;;;;16.90;13.20;;;;;;;8.68;81.40;99974.47;3495580;79;21026;-85
2022/04/21 02:41:21;;;;;;;16.77;12.15;;;;;;;8.61;81.39;99970.91;3479647;79;20916;-86
2022/04/21 02:46:13;;;;;;;13.80;10.65;;;;;;;8.60;81.32;99969.16;3507357;79;20995;-86
2022/04/21 02:51:04;;;;;;;11.35;9.73;;;;;;;8.58;81.29;99973.05;3474633;79;20896;-86
2022/04/21 03:01:04;;;;;;;8.68;7.75;;;;;;;8.64;81.44;99961.89;3416778;81;20960;-86
2022/04/21 03:05:55;;;;;;;9.75;8.75;;;;;;;8.68;81.51;99970.14;3441494;82;21030;-86
2022/04/21 03:10:46;;;;;;;10.55;7.70;;;;;;;8.69;81.49;99966.72;3396004;82;21066;-86
2022/04/21 03:15:37;;;;;;;8.03;7.22;;;;;;;8.69;81.51;99968.02;3470685;80;20988;-86
2022/04/21 03:25:38;;;;;;;7.62;6.33;;;;;;;8.69;81.49;99970.60;3429387;82;20962;-86
2022/04/21 03:30:29;;;;;;;8.15;6.90;;;;;;;8.71;81.50;99970.19;3456316;82;20939;-85
2022/04/21 03:35:20;;;;;;;7.70;6.92;;;;;;;8.70;81.49;99965.84;3460666;80;22432;-85
2022/04/21 03:40:12;;;;;;;8.15;7.05;;;;;;;8.71;81.58;99968.89;3434741;81;21413;-84
2022/04/21 03:45:04;;;;;;;8.53;7.47;;;;;;;8.66;81.55;99958.89;3388472;82;20943;-84
2022/04/21 03:49:57;;;;;;;7.08;6.42;;;;;;;8.61;81.43;99964.44;3428833;82;20983;-84
2022/04/21 03:54:48;;;;;;;7.35;6.22;;;;;;;8.62;81.55;99968.78;3370534;80;21433;-84
2022/04/21 03:59:39;;;;;;;7.37;6.62;;;;;;;8.66;81.57;99973.14;3383169;82;21430;-84
2022/04/21 04:04:33;;;;;;;8.63;7.80;;;;;;;8.73;81.60;99967.19;3422933;80;21038;-84
2022/04/21 04:14:35;;;;;;;9.30;8.28;;;;;;;8.76;81.48;99970.23;3421849;82;20991;-84
2022/04/21 04:19:26;;;;;;;9.25;7.80;;;;;;;8.75;81.38;99970.66;3403981;81;20966;-84
2022/04/21 04:24:18;;;;;;;10.03;9.03;;;;;;;8.80;81.39;99986.29;3378760;82;21509;-85
2022/04/21 04:29:10;;;;;;;10.60;9.60;;;;;;;8.85;81.35;99985.03;3419772;82;20970;-84
2022/04/21 04:34:01;;;;;;;10.58;9.55;;;;;;;8.88;81.41;99988.97;3485753;79;21155;-84
2022/04/21 04:38:52;;;;;;;10.35;9.28;;;;;;;8.91;81.30;99999.38;3496650;79;21592;-84
2022/04/21 04:43:43;;;;;;;10.32;9.23;;;;;;;8.87;81.07;99997.58;3489196;79;20924;-84
2022/04/21 04:48:34;;;;;;;9.58;8.63;;;;;;;8.93;81.13;99989.89;3514655;79;21702;-84
2022/04/21 04:53:25;;;;;;;10.08;9.03;;;;;;;8.96;81.08;100005.50;3543546;78;21395;-84
2022/04/21 04:58:16;;;;;;;10.28;8.95;;;;;;;9.02;81.04;99997.78;3471550;79;20947;-84
2022/04/21 05:03:07;;;;;;;10.60;8.98;;;;;;;9.04;81.07;100003.84;3466438;79;20971;-84
2022/04/21 05:07:59;;;;;;;9.80;8.48;;;;;;;8.96;80.84;99998.58;3485568;79;20895;-84
2022/04/21 05:12:50;;;;;;;8.60;7.67;;;;;;;8.93;80.78;100005.45;3502235;77;21111;-84
2022/04/21 05:17:42;;;;;;;9.35;7.95;;;;;;;8.90;80.81;100011.45;3467903;79;20931;-84
2022/04/21 05:22:37;;;;;;;9.88;8.38;;;;;;;9.00;80.95;100007.27;3449443;79;21488;-84
2022/04/21 05:27:30;;;;;;;8.90;8.00;;;;;;;8.97;80.80;100002.03;3505173;79;20999;-84
2022/04/21 05:32:26;;;;;;;9.33;7.95;;;;;;;8.97;80.68;100008.52;3472748;79;20909;-84
2022/04/21 05:37:18;;;;;;;9.85;7.53;;;;;;;9.00;80.65;100008.56;3506741;78;20927;-84
2022/04/21 05:42:14;;;;;;;8.75;7.95;;;;;;;9.04;80.66;100009.47;3511114;79;21127;-84
2022/04/21 05:47:07;;;;;;;9.40;8.50;;;;;;;9.04;80.66;100009.47;3559195;79;21381;-84
2022/04/21 05:52:00;;;;;;;8.98;7.72;;;;;;;9.03;80.74;100012.50;3471670;79;21337;-84
2022/04/21 05:56:52;;;;;;;9.08;8.13;;;;;;;9.05;80.81;100022.45;3529331;79;21282;-84
2022/04/21 06:01:43;;;;;;;8.40;7.55;;;;;;;9.07;80.66;100020.75;3488609;79;21004;-84
2022/04/21 06:06:34;;;;;;;9.83;8.13;;;;;;;9.12;80.53;100016.48;3417704;82;20888;-84
2022/04/21 06:11:25;;;;;;;8.60;7.70;;;;;;;9.13;80.50;100014.32;3450748;81;21194;-84
2022/04/21 06:16:16;;;;;;;8.98;8.08;;;;;;;9.14;80.46;100010.03;3401512;82;20923;-84
2022/04/21 06:21:07;;;;;;;10.65;9.15;;;;;;;9.15;80.57;100020.83;3432471;81;21659;-84
2022/04/21 06:26:00;;;;;;;11.20;10.10;;;;;;;9.15;80.58;100012.61;3427670;82;21414;-84
2022/04/21 06:30:52;;;;;;;12.43;10.00;;;;;;;9.20;80.71;100018.30;3453418;82;20931;-84
2022/04/21 06:35:44;;;;;;;11.08;9.98;;;;;;;9.16;80.60;100016.96;3424455;82;21615;-84
2022/04/21 06:40:35;;;;;;;10.03;9.05;;;;;;;9.20;80.63;100014.41;3408160;82;20955;-84
2022/04/21 06:50:39;;;;;;;11.60;9.85;;;;;;;9.73;80.16;100022.74;3437654;82;20939;-84
2022/04/21 06:55:31;;;;;;;19.87;17.80;;;;;;;9.82;80.00;100018.47;3424691;81;20983;-85
2022/04/21 07:00:26;;;;;;;9.68;8.75;;;;;;;9.83;80.04;100017.63;3499287;78;21433;-85
2022/04/21 07:05:17;;;;;;;14.83;13.32;;;;;;;9.76;79.91;100028.81;3425254;81;21389;-85
2022/04/21 07:10:09;;;;;;;13.68;12.28;;;;;;;9.73;80.13;100028.38;3436879;82;21425;-84
2022/04/21 07:15:07;;;;;;;10.93;9.83;;;;;;;9.60;79.89;100029.95;3396638;81;21369;-85
2022/04/21 07:19:59;;;;;;;;;;;;;;;9.60;79.89;100029.95;3396598;81;21024;-85
2022/04/21 07:24:50;;;;;;;24.52;15.80;;;;;;;9.63;80.23;100031.72;3429815;81;21008;-82
2022/04/21 07:29:41;;;;;;;13.28;10.55;;;;;;;9.79;80.37;100037.94;3455419;79;20931;-82
2022/04/21 07:34:32;;;;;;;11.50;10.30;;;;;;;9.79;80.37;100037.94;3503786;79;21002;-83
2022/04/21 07:39:23;;;;;;;10.88;9.78;;;;;;;10.03;80.03;100039.86;3451464;79;21707;-89
2022/04/21 07:44:14;;;;;;;9.90;8.90;;;;;;;10.19;79.76;100033.06;3553022;79;20986;-84
2022/04/21 07:54:15;;;;;;;8.23;7.42;;;;;;;10.43;79.51;100035.02;3410681;82;20991;-82
2022/04/21 07:59:06;;;;;;;9.05;7.45;;;;;;;10.43;79.51;100035.02;3454135;82;20960;-82
2022/04/21 08:04:02;;;;;;;7.50;6.80;;;;;;;10.69;79.40;100039.06;3439140;80;20905;-83
2022/04/21 08:08:54;;;;;;;7.25;6.65;;;;;;;10.74;79.03;100033.45;3501900;79;20975;-83
2022/04/21 08:13:47;;;;;;;8.10;6.40;;;;;;;10.93;79.16;100020.53;3459991;78;21037;-82
2022/04/21 08:18:38;;;;;;;6.33;5.83;;;;;;;11.22;78.76;100020.22;3478897;79;20901;-81
2022/04/21 08:23:29;;;;;;;7.47;6.78;;;;;;;11.58;78.35;100021.62;3462492;79;20900;-78
2022/04/21 08:33:29;;;;;;;6.85;6.15;;;;;;;11.78;77.53;100022.50;3513503;79;20987;-82
2022/04/21 08:38:20;;;;;;;6.85;6.10;;;;;;;11.81;77.37;100022.51;3495561;79;20994;-82
2022/04/21 08:43:17;;;;;;;7.45;6.75;;;;;;;11.94;77.26;100024.71;3484850;79;21606;-81
2022/04/21 08:48:15;;;;;;;8.80;6.30;;;;;;;11.88;77.36;100021.23;3470385;79;37268;-80
2022/04/21 08:53:09;;;;;;;7.40;6.15;;;;;;;11.85;76.95;100012.10;3537172;77;21505;-81
2022/04/21 08:58:01;;;;;;;6.25;5.45;;;;;;;12.06;76.85;100004.31;3522312;79;21529;-82
2022/04/21 09:02:53;;;;;;;6.67;6.08;;;;;;;12.42;76.62;100007.75;3503975;79;21517;-83
2022/04/21 09:07:50;;;;;;;7.15;6.10;;;;;;;12.72;76.96;100007.25;3469547;79;20975;-81
2022/04/21 09:12:50;;;;;;;6.17;5.58;;;;;;;12.81;75.93;100008.52;3485025;79;21003;-84
2022/04/21 09:17:57;;;;;;;6.17;5.67;;;;;;;12.78;75.79;100003.30;3512678;78;21465;-78
2022/04/21 09:22:54;;;;;;;;;;;;;;;12.85;75.42;100000.25;3555686;79;20999;-83
2022/04/21 09:27:48;;;;;;;6.95;5.83;;;;;;;12.89;74.92;100004.56;3509783;80;21030;-86
2022/04/21 09:32:42;;;;;;;8.00;5.60;;;;;;;12.88;75.91;100003.70;3511183;77;21023;-84
2022/04/21 09:37:46;;;;;;;8.08;6.83;;;;;;;12.85;75.57;100003.71;3513339;79;21010;-80
2022/04/21 09:42:37;;;;;;;7.65;6.75;;;;;;;12.69;75.61;100011.16;3494240;79;21474;-78
2022/04/21 09:47:30;;;;;;;8.60;7.80;;;;;;;12.55;75.68;100003.37;3496581;79;21109;-81
2022/04/21 09:52:30;;;;;;;6.58;5.92;;;;;;;12.45;75.80;100000.34;3486016;79;21797;-80
2022/04/21 09:57:30;;;;;;;7.12;6.42;;;;;;;12.32;75.74;100011.23;3536287;79;20936;-80
2022/04/21 10:02:22;;;;;;;7.53;6.37;;;;;;;12.23;75.67;100004.73;3491953;79;20948;-81
2022/04/21 10:07:16;;;;;;;7.15;6.25;;;;;;;12.29;76.01;100000.39;3514018;79;20979;-81
2022/04/21 10:12:08;;;;;;;7.37;6.28;;;;;;;12.40;75.88;100001.67;3493154;77;21046;-84
2022/04/21 10:17:00;;;;;;;7.67;5.92;;;;;;;12.52;75.97;99997.73;3537281;79;21127;-79
2022/04/21 10:22:02;;;;;;;6.87;5.97;;;;;;;12.61;75.95;100002.06;3498321;79;20948;-80
2022/04/21 10:26:56;;;;;;;9.35;7.65;;;;;;;12.78;75.55;100002.00;3492822;79;21462;-82
2022/04/21 10:32:03;;;;;;;7.30;6.67;;;;;;;12.92;75.37;100001.51;3500358;79;21007;-82
2022/04/21 10:37:20;;;;;;;8.00;6.17;;;;;;;13.07;74.83;100004.92;3513672;79;20941;-81
2022/04/21 10:42:18;;;;;;;6.85;5.83;;;;;;;13.23;73.96;99992.67;3466301;79;21910;-82
2022/04/21 10:47:41;;;;;;;6.92;6.22;;;;;;;13.38;73.77;99998.27;3503703;78;21019;-82
2022/04/21 10:57:28;;;;;;;7.33;6.62;;;;;;;13.87;72.99;99996.18;3522986;79;20963;-81
2022/04/21 11:02:19;;;;;;;8.20;6.72;;;;;;;13.88;72.17;99997.92;3515989;79;20923;-81
2022/04/21 11:07:14;;;;;;;6.75;5.90;;;;;;;14.14;71.67;99995.97;3449548;79;20979;-82
2022/04/21 11:12:07;;;;;;;8.58;6.90;;;;;;;14.30;71.26;99989.70;3455582;80;21464;-80
2022/04/21 11:17:04;;;;;;;7.28;6.58;;;;;;;14.54;70.61;99992.95;3403666;82;20912;-79
2022/04/21 11:21:58;;;;;;;;;;;;;;;14.82;69.68;99983.92;3414608;82;20920;-77
2022/04/21 11:26:59;;;;;;;7.85;5.90;;;;;;;15.07;70.00;99983.63;3398279;82;20118;-77
2022/04/21 11:31:59;;;;;;;6.75;5.37;;;;;;;14.96;69.72;99988.14;3417797;82;21497;-77
2022/04/21 11:37:01;;;;;;;6.35;5.75;;;;;;;14.81;69.61;99992.68;3423729;82;21014;-79
2022/04/21 11:41:52;;;;;;;6.50;5.90;;;;;;;14.65;69.44;99988.52;3428779;82;21192;-79
2022/04/21 11:46:43;;;;;;;7.15;6.35;;;;;;;14.62;69.19;99987.23;3456106;82;20927;-77
2022/04/21 11:51:34;;;;;;;7.08;5.15;;;;;;;14.41;68.89;99994.37;3478920;80;20907;-76
2022/04/21 11:56:27;;;;;;;7.00;5.83;;;;;;;14.32;69.07;99993.16;3417233;81;21414;-76
2022/04/21 12:06:28;;;;;;;7.22;6.20;;;;;;;14.27;67.68;99989.73;3456716;80;20998;-79
2022/04/21 12:11:22;;;;;;;5.83;5.33;;;;;;;14.19;67.36;99991.57;3459531;82;21128;-79
2022/04/21 12:16:44;;;;;;;5.60;5.10;;;;;;;14.21;68.19;99992.41;3386331;83;21451;-78
2022/04/21 12:21:36;;;;;;;10.13;6.87;;;;;;;14.07;67.79;99994.70;3456968;79;21466;-81
2022/04/21 12:26:27;;;;;;;6.70;6.08;;;;;;;13.97;67.65;99996.98;3536011;79;21300;-83
2022/04/21 12:31:19;;;;;;;7.00;5.78;;;;;;;14.05;67.11;99996.47;3521920;80;21675;-79
2022/04/21 12:36:10;;;;;;;8.40;6.00;;;;;;;14.07;66.41;99993.39;3461237;79;21403;-77
2022/04/21 12:41:02;;;;;;;9.53;6.47;;;;;;;14.10;67.28;100000.36;3491197;79;21109;-76
2022/04/21 12:45:57;;;;;;;11.20;6.22;;;;;;;14.07;66.74;99999.92;3495606;79;21640;-77
2022/04/21 12:50:49;;;;;;;8.00;6.47;;;;;;;14.04;66.08;99998.67;3504811;80;20999;-78
2022/04/21 12:55:40;;;;;;;7.62;6.80;;;;;;;14.09;66.41;100003.84;3483470;79;20967;-78
2022/04/21 13:00:33;;;;;;;7.00;5.70;;;;;;;14.15;66.42;100012.95;3456361;79;21414;-78
2022/04/21 13:05:25;;;;;;;6.55;5.70;;;;;;;14.21;66.21;100014.64;3510525;80;21004;-78
2022/04/21 13:10:16;;;;;;;7.53;6.47;;;;;;;14.26;65.83;100012.85;3483582;79;21519;-76
2022/04/21 13:15:09;;;;;;;7.95;6.33;;;;;;;14.21;65.96;100013.33;3515955;77;20909;-78
2022/04/21 13:20:00;;;;;;;6.65;5.92;;;;;;;14.22;65.74;100013.32;3524024;79;20892;-80
2022/04/21 13:24:52;;;;;;;7.42;6.28;;;;;;;14.19;64.99;100020.33;3522157;79;20983;-79
2022/04/21 13:29:44;;;;;;;6.37;5.78;;;;;;;14.09;64.74;100020.83;3524725;80;20970;-78
2022/04/21 13:34:36;;;;;;;7.10;6.30;;;;;;;13.95;64.84;100020.97;3463309;79;21200;-78
2022/04/21 13:39:29;;;;;;;8.93;6.28;;;;;;;13.81;64.98;100024.13;3513492;80;20955;-79
2022/04/21 13:44:20;;;;;;;10.72;6.58;;;;;;;13.66;65.29;100031.16;3515787;79;20936;-83
2022/04/21 13:49:11;;;;;;;9.00;6.60;;;;;;;13.63;65.53;100025.09;3528209;79;21513;-82
2022/04/21 13:54:03;;;;;;;7.03;6.33;;;;;;;13.58;65.39;100027.75;3517208;79;20967;-79
2022/04/21 13:58:55;;;;;;;7.62;6.85;;;;;;;13.51;65.64;100022.14;3504570;79;20964;-78
2022/04/21 14:03:47;;;;;;;9.13;6.67;;;;;;;13.49;65.72;100022.59;3531800;79;21494;-80
2022/04/21 14:08:42;;;;;;;7.65;6.80;;;;;;;13.48;65.36;100027.37;3502362;79;20932;-79
2022/04/21 14:13:34;;;;;;;8.38;6.62;;;;;;;13.49;65.48;100021.28;3528799;79;22223;-76
2022/04/21 14:18:26;;;;;;;9.55;7.45;;;;;;;13.57;64.77;100020.78;3512220;79;21366;-77
2022/04/21 14:23:18;;;;;;;11.03;7.42;;;;;;;13.71;65.06;100021.55;3547921;79;21478;-76
2022/04/21 14:28:10;;;;;;;7.55;6.75;;;;;;;13.64;64.40;100029.45;3392072;82;21438;-78
2022/04/21 14:33:01;;;;;;;10.40;8.03;;;;;;;13.55;64.35;100022.53;3467008;81;21231;-79
2022/04/21 14:48:12;;;;;;;9.15;8.28;;;;;;;13.45;64.34;100033.91;3441979;81;21226;-74
2022/04/21 14:53:03;;;;;;;7.45;6.62;;;;;;;13.27;64.58;100039.64;3432016;82;21011;-76
2022/04/21 14:57:55;;;;;;;8.13;6.33;;;;;;;13.13;64.63;100041.01;3432664;82;20912;-75
2022/04/21 15:02:46;;;;;;;10.98;7.05;;;;;;;12.96;64.82;100045.41;3409327;82;21459;-77
2022/04/21 15:07:37;;;;;;;7.72;6.60;;;;;;;12.80;65.23;100045.90;3406662;82;20959;-75
2022/04/21 15:12:28;;;;;;;8.35;7.55;;;;;;;12.65;65.42;100048.56;3456283;82;21006;-77
2022/04/21 15:17:19;;;;;;;9.70;6.50;;;;;;;12.50;65.69;100049.03;3456863;82;22102;-76
2022/04/21 15:22:10;;;;;;;8.33;6.97;;;;;;;12.40;65.88;100045.99;3415598;81;20966;-75
2022/04/21 15:27:01;;;;;;;8.58;7.70;;;;;;;12.35;66.10;100043.82;3425154;82;21663;-76
2022/04/21 15:31:52;;;;;;;8.30;6.60;;;;;;;12.35;67.20;100045.13;3440739;80;20943;-77
2022/04/21 15:36:44;;;;;;;7.37;5.80;;;;;;;12.31;67.65;100047.31;3483038;80;21685;-79
2022/04/21 15:41:36;;;;;;;7.83;6.45;;;;;;;12.24;68.15;100052.09;3431966;80;21206;-77
2022/04/21 15:46:27;;;;;;;7.97;7.17;;;;;;;12.13;68.48;100053.40;3436670;82;20951;-77
2022/04/21 15:51:18;;;;;;;9.25;6.90;;;;;;;12.10;68.77;100058.60;3453793;80;20880;-78
2022/04/21 16:01:25;;;;;;;11.85;8.18;;;;;;;12.04;69.72;100067.70;3452316;80;21214;-79
2022/04/21 16:06:19;;;;;;;9.85;7.85;;;;;;;11.93;69.52;100076.41;3469473;80;20951;-78
2022/04/21 16:11:09;;;;;;;8.98;7.15;;;;;;;11.78;68.18;100081.09;3384151;82;21449;-75
2022/04/21 16:16:00;;;;;;;11.22;9.23;;;;;;;11.76;68.20;100089.34;3476248;82;20970;-79
2022/04/21 16:20:51;;;;;;;12.00;8.68;;;;;;;11.74;68.05;100091.08;3430414;82;21015;-82
2022/04/21 16:25:42;;;;;;;12.55;9.15;;;;;;;11.70;67.98;100089.79;3429967;82;20971;-80
2022/04/21 16:30:34;;;;;;;10.85;8.23;;;;;;;11.64;67.86;100091.51;3478982;81;20967;-78
2022/04/21 16:35:25;;;;;;;6.35;5.72;;;;;;;11.57;67.90;100097.97;3404080;81;20916;-78
2022/04/21 16:40:16;;;;;;;6.60;5.90;;;;;;;11.49;67.45;100104.47;3530838;79;20883;-77
2022/04/21 16:45:08;;;;;;;7.58;5.80;;;;;;;11.40;67.35;100108.34;3531164;78;21520;-77
2022/04/21 16:50:00;;;;;;;8.28;6.35;;;;;;;11.34;67.34;100117.00;3485052;79;21269;-77
2022/04/21 16:54:51;;;;;;;6.45;5.40;;;;;;;11.25;67.18;100120.87;3536660;79;20927;-77
2022/04/21 16:59:43;;;;;;;7.47;5.92;;;;;;;11.12;67.40;100129.45;3523950;78;20888;-77
2022/04/21 17:04:34;;;;;;;6.53;5.85;;;;;;;11.05;67.54;100126.84;3521932;79;21051;-77
2022/04/21 17:09:25;;;;;;;13.85;5.75;;;;;;;11.00;67.50;100136.34;3520112;78;21238;-77
2022/04/21 17:14:16;;;;;;;6.83;6.03;;;;;;;10.99;67.64;100135.89;3514018;79;21128;-77
2022/04/21 17:19:08;;;;;;;10.80;7.12;;;;;;;10.99;67.74;100139.79;3509034;79;20919;-77
2022/04/21 17:24:00;;;;;;;6.58;5.72;;;;;;;10.93;67.89;100142.37;3482760;79;20967;-77
2022/04/21 17:28:52;;;;;;;6.47;5.25;;;;;;;10.93;67.89;100142.37;3431626;78;21576;-77
2022/04/21 17:33:43;;;;;;;10.23;6.12;;;;;;;10.86;67.85;100145.80;3483944;79;22069;-77
2022/04/21 17:38:34;;;;;;;9.45;5.95;;;;;;;10.81;67.97;100150.09;3560153;78;22028;-77
2022/04/21 17:43:26;;;;;;;9.53;6.58;;;;;;;10.72;67.98;100147.42;3485862;79;21030;-77
2022/04/21 17:48:19;;;;;;;7.70;6.65;;;;;;;10.70;67.83;100150.01;3524303;79;20928;-77
2022/04/21 17:53:13;;;;;;;7.22;6.12;;;;;;;10.67;68.12;100156.04;3488395;77;21129;-77
2022/04/21 17:58:07;;;;;;;10.20;6.75;;;;;;;10.64;68.07;100157.75;3472486;79;21088;-79
2022/04/21 18:02:59;;;;;;;9.95;7.40;;;;;;;10.59;67.92;100164.23;3454763;79;21129;-80
2022/04/21 18:07:50;;;;;;;13.88;6.97;;;;;;;10.54;68.06;100165.05;3475180;79;21572;-79
2022/04/21 18:12:42;;;;;;;15.05;6.42;;;;;;;10.48;68.34;100174.94;3471756;78;21014;-79
2022/04/21 18:17:34;;;;;;;8.73;6.65;;;;;;;10.45;68.11;100183.59;3439126;79;20995;-80
2022/04/21 18:22:26;;;;;;;11.78;7.75;;;;;;;10.45;68.13;100183.59;3487402;79;20951;-80
2022/04/21 18:27:17;;;;;;;14.65;7.08;;;;;;;10.38;68.43;100175.30;3515372;79;22072;-80
2022/04/21 18:32:08;;;;;;;13.08;7.55;;;;;;;10.40;68.49;100185.28;3426757;77;20931;-80
2022/04/21 18:37:00;;;;;;;12.28;7.20;;;;;;;10.34;69.14;100185.64;3470065;79;20994;-80
2022/04/21 18:41:51;;;;;;;10.38;6.50;;;;;;;10.23;68.98;100185.10;3475868;78;21561;-80
2022/04/21 18:46:42;;;;;;;12.28;6.78;;;;;;;10.16;69.42;100170.31;3472621;79;20971;-80
2022/04/21 18:51:34;;;;;;;12.93;6.58;;;;;;;10.20;69.81;100182.47;3487438;79;20981;-80
2022/04/21 18:56:25;;;;;;;11.55;6.10;;;;;;;10.14;70.08;100174.62;3524791;77;20972;-80
2022/04/21 19:01:17;;;;;;;10.32;7.53;;;;;;;10.04;70.22;100175.38;3476523;80;21663;-80
2022/04/21 19:06:10;;;;;;;56.55;26.30;;;;;;;9.94;70.45;100180.88;3484842;79;20979;-80
2022/04/21 19:11:03;;;;;;;13.58;9.10;;;;;;;9.92;70.90;100163.98;3447447;79;20976;-80
2022/04/21 19:15:54;;;;;;;11.75;9.05;;;;;;;9.92;70.90;100163.98;3522529;79;21164;-80
2022/04/21 19:20:46;;;;;;;10.72;8.28;;;;;;;9.87;70.94;100160.49;3548432;79;22435;-80
2022/04/21 19:25:38;;;;;;;9.00;7.15;;;;;;;9.78;71.37;100161.66;3465513;79;20976;-79
2022/04/21 19:30:30;;;;;;;10.88;7.40;;;;;;;9.72;71.50;100160.30;3478468;79;21448;-80
2022/04/21 19:35:23;;;;;;;12.78;7.62;;;;;;;9.57;72.44;100144.14;3511878;79;21478;-80
2022/04/21 19:40:14;;;;;;;11.05;7.67;;;;;;;9.55;71.95;100147.15;3494749;79;21580;-80
2022/04/21 19:45:07;;;;;;;10.43;8.15;;;;;;;9.55;71.95;100147.15;3460747;79;20964;-80
2022/04/21 19:49:59;;;;;;;11.28;8.68;;;;;;;9.37;72.27;100143.86;3508751;78;22160;-80
2022/04/21 19:54:50;;;;;;;9.88;7.58;;;;;;;9.37;72.27;100143.86;3497789;79;21466;-80
2022/04/21 19:59:41;;;;;;;9.30;7.83;;;;;;;9.11;72.58;100148.30;3509410;79;21007;-79
2022/04/21 20:04:32;;;;;;;10.78;8.28;;;;;;;9.11;72.58;100148.30;3473145;79;20887;-77
2022/04/21 20:09:24;;;;;;;12.82;8.75;;;;;;;9.03;72.46;100141.26;3424165;79;20959;-80
2022/04/21 20:14:15;;;;;;;10.13;8.73;;;;;;;8.95;72.42;100143.75;3440722;80;20942;-80
2022/04/21 20:26:35;;;;;;;19.98;12.75;;;;;;;8.69;72.59;100146.84;3481619;79;22099;-80
2022/04/21 20:29:11;;;;;;;18.98;12.82;;;;;;;8.58;72.88;100145.77;3514076;79;20994;-80
2022/04/21 20:34:02;;;;;;;26.25;15.65;;;;;;;8.52;72.84;100140.51;3466339;78;21233;-78
2022/04/21 20:38:54;;;;;;;28.42;16.37;;;;;;;8.55;73.34;100135.38;3512767;77;20995;-80
2022/04/21 20:43:45;;;;;;;23.38;17.45;;;;;;;8.58;73.60;100131.52;3508061;79;20943;-79
2022/04/21 20:48:36;;;;;;;21.40;17.82;;;;;;;8.59;73.52;100135.87;3526081;79;21026;-79
2022/04/21 20:53:27;;;;;;;28.02;20.17;;;;;;;8.55;73.61;100137.98;3550005;79;21517;-79
2022/04/21 20:58:19;;;;;;;29.12;19.90;;;;;;;8.52;73.78;100127.55;3478936;78;20939;-79
2022/04/21 21:03:10;;;;;;;21.65;16.97;;;;;;;8.52;73.78;100127.55;3487334;79;21093;-79
2022/04/21 21:08:01;;;;;;;21.97;17.23;;;;;;;8.62;74.17;100128.16;3515539;78;21999;-79
2022/04/21 21:12:54;;;;;;;20.35;16.35;;;;;;;8.59;74.27;100132.84;3495438;78;21237;-79
2022/04/21 21:17:45;;;;;;;22.45;14.78;;;;;;;8.58;74.32;100134.11;3505390;79;21953;-79
2022/04/21 21:22:48;;;;;;;17.55;12.60;;;;;;;8.56;74.42;100130.20;3537466;79;20935;-79
2022/04/21 21:27:39;;;;;;;16.52;13.20;;;;;;;8.58;74.61;100122.45;3522501;79;22236;-76
2022/04/21 21:32:30;;;;;;;15.63;12.40;;;;;;;8.68;74.49;100126.94;3553640;78;20960;-76
2022/04/21 21:37:22;;;;;;;13.00;11.55;;;;;;;8.72;74.55;100128.72;3497282;79;20925;-76
2022/04/21 21:42:13;;;;;;;15.72;10.98;;;;;;;8.70;74.63;100126.53;3481309;79;22067;-76
2022/04/21 21:47:05;;;;;;;17.25;11.75;;;;;;;8.66;74.54;100131.23;3527745;79;20940;-76
2022/04/21 21:57:06;;;;;;;15.65;12.25;;;;;;;8.66;74.64;100135.12;3554501;78;21458;-76
2022/04/21 22:01:57;;;;;;;14.33;12.28;;;;;;;8.58;74.89;100131.52;3471935;79;20927;-78
2022/04/21 22:06:49;;;;;;;14.53;11.18;;;;;;;8.59;75.13;100124.21;3468471;79;21910;-77
2022/04/21 22:11:40;;;;;;;15.35;10.90;;;;;;;8.60;75.19;100133.70;3540524;79;21018;-77
2022/04/21 22:16:33;;;;;;;15.05;11.55;;;;;;;8.61;75.25;100126.83;3486860;79;20951;-77
2022/04/21 22:21:24;;;;;;;12.50;11.15;;;;;;;8.63;74.90;100127.29;3476790;79;21025;-78
2022/04/21 22:26:15;;;;;;;15.63;11.00;;;;;;;8.63;74.90;100127.29;3528132;79;21884;-78
2022/04/21 22:31:07;;;;;;;15.50;11.53;;;;;;;8.56;75.25;100121.13;3503030;79;21633;-78
2022/04/21 22:36:02;;;;;;;13.00;11.65;;;;;;;8.56;75.25;100121.13;3503252;79;21489;-78
2022/04/21 22:40:53;;;;;;;14.90;11.85;;;;;;;8.64;75.24;100125.16;3495850;79;21533;-78
2022/04/21 22:45:44;;;;;;;12.30;10.85;;;;;;;8.66;75.24;100127.77;3489012;79;20956;-78
2022/04/21 22:50:37;;;;;;;14.07;10.08;;;;;;;8.61;75.34;100122.94;3501304;78;20963;-78
2022/04/21 22:55:28;;;;;;;17.07;11.18;;;;;;;8.54;75.46;100129.73;3453297;79;22409;-78
2022/04/21 23:00:19;;;;;;;13.25;10.65;;;;;;;8.49;75.54;100124.91;3469901;79;20952;-78
2022/04/21 23:05:11;;;;;;;14.13;12.10;;;;;;;8.50;75.66;100124.07;3485128;78;21010;-78
2022/04/21 23:15:15;;;;;;;14.70;11.57;;;;;;;8.43;75.53;100119.20;3504155;79;21453;-78
2022/04/21 23:20:07;;;;;;;11.45;9.78;;;;;;;8.34;75.73;100119.89;3427097;82;20967;-78
2022/04/21 23:25:01;;;;;;;14.38;11.50;;;;;;;8.29;75.76;100120.67;3397148;82;20959;-77
2022/04/21 23:29:51;;;;;;;14.85;10.80;;;;;;;8.29;76.03;100126.70;3449604;82;21014;-77
2022/04/21 23:34:42;;;;;;;14.50;11.50;;;;;;;8.31;76.02;100131.48;3435828;82;21031;-78
2022/04/21 23:39:33;;;;;;;15.20;12.05;;;;;;;8.35;76.19;100132.41;3413479;82;20959;-78
2022/04/21 23:44:24;;;;;;;14.63;11.40;;;;;;;8.36;76.20;100135.03;3409207;82;21148;-78
2022/04/21 23:49:15;;;;;;;14.18;10.53;;;;;;;8.36;76.28;100129.84;3380262;82;20967;-78
2022/04/21 23:54:06;;;;;;;12.93;11.30;;;;;;;8.39;76.31;100129.91;3421186;82;21505;-78